PDT,Max TemperatureF,Mean TemperatureF,Min TemperatureF,Max Dew PointF,MeanDew PointF,Min DewpointF,Max Humidity, Mean Humidity, Min Humidity, Max Sea Level PressureIn, Mean Sea Level PressureIn, Min Sea Level PressureIn, Max VisibilityMiles, Mean VisibilityMiles, Min VisibilityMiles, Max Wind SpeedMPH, Mean Wind SpeedMPH, Max Gust SpeedMPH,PrecipitationIn, CloudCover, Events, WindDirDegrees
2013-10-1,86,70,53,54,40,32,60,31,16,29.95,29.91,29.86,10,10,10,14,4,,0.00,0,,239
2013-10-2,78,68,59,54,50,36,82,52,30,29.99,29.93,29.87,10,7,2,9,3,,0.00,2,,243
2013-10-3,75,68,60,54,50,45,77,54,34,29.93,29.88,29.82,10,8,5,13,6,,0.00,4,,233
2013-10-4,80,66,53,46,19,10,72,17,7,30.07,30.00,29.96,10,9,7,29,15,40,0.00,0,,1
2013-10-5,86,70,53,21,16,12,22,10,7,30.19,30.12,30.06,10,10,10,14,5,,0.00,0,,209
2013-10-6,91,70,50,19,15,9,24,10,5,30.13,30.05,29.98,10,10,10,6,1,,0.00,1,,239
2013-10-7,86,70,55,45,26,12,67,20,8,30.00,29.94,29.89,10,10,10,15,5,,0.00,3,,254
2013-10-8,77,64,50,50,37,27,68,35,20,29.93,29.87,29.81,10,9,7,16,3,,0.00,1,,250
2013-10-9,60,55,48,48,45,39,93,69,45,29.80,29.76,29.72,10,6,2,13,7,,0.00,8,Rain,166
2013-10-10,64,54,44,45,40,37,87,54,37,30.01,29.98,29.94,10,10,10,8,3,,0.00,1,,232
2013-10-11,75,60,44,50,41,36,87,47,24,30.05,29.99,29.93,10,9,7,9,3,,0.00,0,,233
2013-10-12,77,64,50,48,41,36,82,42,22,29.98,29.93,29.89,10,10,10,9,3,,0.00,0,,244
2013-10-13,71,62,53,50,47,41,88,58,33,30.00,29.97,29.94,7,5,3,9,3,,0.00,3,,238
2013-10-14,82,64,46,41,31,25,81,28,13,30.05,29.98,29.92,10,10,10,9,2,,0.00,0,,290
2013-10-15,84,67,50,30,25,19,43,18,11,30.00,29.95,29.89,10,10,10,17,4,,0.00,0,,342
2013-10-16,82,66,51,37,22,18,35,17,9,30.11,30.05,29.99,10,10,10,8,3,,0.00,0,,335
2013-10-17,82,65,48,36,26,21,43,21,10,30.06,29.99,29.92,10,10,10,12,5,,0.00,0,,255
2013-10-18,87,68,50,34,28,23,54,21,9,30.03,29.98,29.94,10,10,10,12,3,,0.00,0,,242
2013-10-19,89,68,48,36,23,16,35,17,7,30.05,30.00,29.95,10,10,10,13,2,,0.00,0,,255
2013-10-20,84,66,48,45,32,27,46,27,13,30.00,29.94,29.89,10,9,7,9,4,,0.00,0,,241
2013-10-21,84,65,46,45,34,28,53,28,14,29.99,29.95,29.90,10,8,5,8,3,,0.00,0,,243
2013-10-22,89,70,50,46,35,27,62,25,11,30.06,29.94,29.89,10,10,10,13,4,,0.00,0,,238
2013-10-23,71,62,53,52,50,48,88,67,46,29.96,29.93,29.90,4,2,1,8,2,,0.00,3,,247
2013-10-24,66,62,57,50,50,48,77,67,56,30.03,30.00,29.97,3,2,2,6,1,,0.00,5,,227
2013-10-25,75,64,53,50,49,46,88,61,36,30.13,30.07,30.02,5,3,1,6,0,,0.00,3,,230
2013-10-26,91,70,50,48,38,27,66,29,10,30.10,30.02,29.96,10,7,5,10,3,,0.00,3,,255
2013-10-27,80,66,51,54,39,32,82,38,17,29.95,29.88,29.81,10,9,7,13,3,,0.00,0,,244
2013-10-28,62,56,51,50,45,39,82,67,48,29.92,29.88,29.84,10,8,6,17,9,,0.00,7,Rain,229
2013-10-29,59,52,46,46,42,37,93,63,48,29.99,29.96,29.94,10,9,7,8,2,,0.00,5,,236
2013-10-30,71,58,44,43,38,30,87,48,22,30.06,30.02,29.97,10,10,10,8,2,,0.00,0,,244
2013-10-31,77,59,41,34,25,19,70,27,12,30.10,30.04,29.99,10,10,10,7,1,,0.00,0,,220